sensor_id;sensor_type;location;lat;lon;timestamp;P1;durP1;ratioP1;P2;durP2;ratioP2
41167;SDS011;26906;45.658;9.272;2024-01-30T06:36:21;34.17;;;21.70;;
41167;SDS011;26906;45.658;9.272;2024-01-30T06:38:46;48.47;;;24.45;;
41167;SDS011;26906;45.658;9.272;2024-01-30T06:41:12;45.58;;;23.33;;
41167;SDS011;26906;45.658;9.272;2024-01-30T06:43:38;37.40;;;23.25;;
41167;SDS011;26906;45.658;9.272;2024-01-30T06:46:04;38.83;;;23.20;;
41167;SDS011;26906;45.658;9.272;2024-01-30T06:48:30;37.40;;;24.30;;
41167;SDS011;26906;45.658;9.272;2024-01-30T06:50:56;36.80;;;23.48;;
41167;SDS011;26906;45.658;9.272;2024-01-30T06:53:23;42.95;;;23.45;;
41167;SDS011;26906;45.658;9.272;2024-01-30T06:55:48;42.38;;;23.90;;
41167;SDS011;26906;45.658;9.272;2024-01-30T06:58:14;34.08;;;22.50;;
41167;SDS011;26906;45.658;9.272;2024-01-30T07:00:41;42.45;;;22.70;;
41167;SDS011;26906;45.658;9.272;2024-01-30T07:03:07;41.63;;;24.70;;
41167;SDS011;26906;45.658;9.272;2024-01-30T07:05:34;33.80;;;21.83;;
41167;SDS011;26906;45.658;9.272;2024-01-30T07:07:59;37.45;;;22.45;;
41167;SDS011;26906;45.658;9.272;2024-01-30T07:10:25;37.70;;;22.90;;
41167;SDS011;26906;45.658;9.272;2024-01-30T07:12:51;35.78;;;23.02;;
41167;SDS011;26906;45.658;9.272;2024-01-30T07:15:16;37.45;;;23.00;;
41167;SDS011;26906;45.658;9.272;2024-01-30T07:17:44;38.55;;;22.10;;
41167;SDS011;26906;45.658;9.272;2024-01-30T07:20:11;40.13;;;23.02;;
41167;SDS011;26906;45.658;9.272;2024-01-30T07:22:38;39.33;;;23.27;;
41167;SDS011;26906;45.658;9.272;2024-01-30T07:25:05;37.83;;;22.73;;
41167;SDS011;26906;45.658;9.272;2024-01-30T07:27:31;41.05;;;23.27;;
41167;SDS011;26906;45.658;9.272;2024-01-30T07:29:59;35.60;;;21.15;;
41167;SDS011;26906;45.658;9.272;2024-01-30T07:32:24;36.58;;;22.73;;
41167;SDS011;26906;45.658;9.272;2024-01-30T07:34:51;41.67;;;23.52;;
41167;SDS011;26906;45.658;9.272;2024-01-30T07:37:17;38.72;;;22.55;;
41167;SDS011;26906;45.658;9.272;2024-01-30T07:39:42;38.60;;;23.38;;
41167;SDS011;26906;45.658;9.272;2024-01-30T07:42:08;37.53;;;22.52;;
41167;SDS011;26906;45.658;9.272;2024-01-30T07:44:34;37.05;;;23.25;;
41167;SDS011;26906;45.658;9.272;2024-01-30T07:47:00;37.60;;;22.20;;
41167;SDS011;26906;45.658;9.272;2024-01-30T07:49:25;36.08;;;22.77;;
41167;SDS011;26906;45.658;9.272;2024-01-30T07:51:51;41.25;;;23.02;;
41167;SDS011;26906;45.658;9.272;2024-01-30T07:54:17;38.95;;;23.52;;
41167;SDS011;26906;45.658;9.272;2024-01-30T07:56:42;40.72;;;23.95;;
41167;SDS011;26906;45.658;9.272;2024-01-30T07:59:10;39.75;;;22.45;;
41167;SDS011;26906;45.658;9.272;2024-01-30T08:01:36;41.63;;;24.60;;
41167;SDS011;26906;45.658;9.272;2024-01-30T08:04:03;42.03;;;23.92;;
41167;SDS011;26906;45.658;9.272;2024-01-30T08:06:29;39.53;;;25.92;;
41167;SDS011;26906;45.658;9.272;2024-01-30T08:08:55;46.20;;;26.90;;
41167;SDS011;26906;45.658;9.272;2024-01-30T08:11:22;46.88;;;26.15;;
41167;SDS011;26906;45.658;9.272;2024-01-30T08:13:51;42.13;;;25.42;;
41167;SDS011;26906;45.658;9.272;2024-01-30T08:16:21;45.13;;;26.35;;
41167;SDS011;26906;45.658;9.272;2024-01-30T08:18:47;39.20;;;26.23;;
41167;SDS011;26906;45.658;9.272;2024-01-30T08:21:12;46.08;;;26.10;;
41167;SDS011;26906;45.658;9.272;2024-01-30T08:23:38;44.45;;;25.90;;
41167;SDS011;26906;45.658;9.272;2024-01-30T08:26:04;47.35;;;26.35;;
41167;SDS011;26906;45.658;9.272;2024-01-30T08:28:31;91.65;;;27.88;;
41167;SDS011;26906;45.658;9.272;2024-01-30T08:30:58;61.28;;;26.55;;
41167;SDS011;26906;45.658;9.272;2024-01-30T08:33:23;55.60;;;24.58;;
41167;SDS011;26906;45.658;9.272;2024-01-30T08:35:49;41.15;;;25.55;;
41167;SDS011;26906;45.658;9.272;2024-01-30T08:38:15;49.78;;;25.45;;
41167;SDS011;26906;45.658;9.272;2024-01-30T08:40:40;42.85;;;24.13;;
41167;SDS011;26906;45.658;9.272;2024-01-30T08:43:07;45.80;;;26.13;;
41167;SDS011;26906;45.658;9.272;2024-01-30T08:45:35;41.65;;;25.42;;
41167;SDS011;26906;45.658;9.272;2024-01-30T08:48:00;51.35;;;26.83;;
41167;SDS011;26906;45.658;9.272;2024-01-30T08:50:26;43.05;;;27.30;;
41167;SDS011;26906;45.658;9.272;2024-01-30T08:52:53;46.15;;;28.42;;
41167;SDS011;26906;45.658;9.272;2024-01-30T08:55:19;48.08;;;29.95;;
41167;SDS011;26906;45.658;9.272;2024-01-30T08:57:44;49.22;;;30.67;;
41167;SDS011;26906;45.658;9.272;2024-01-30T09:00:10;51.92;;;32.60;;
41167;SDS011;26906;45.658;9.272;2024-01-30T09:02:36;54.22;;;30.58;;
41167;SDS011;26906;45.658;9.272;2024-01-30T09:05:02;55.55;;;31.25;;
41167;SDS011;26906;45.658;9.272;2024-01-30T09:07:29;55.40;;;33.65;;
41167;SDS011;26906;45.658;9.272;2024-01-30T09:09:54;53.65;;;31.33;;
41167;SDS011;26906;45.658;9.272;2024-01-30T09:12:21;49.95;;;30.30;;
41167;SDS011;26906;45.658;9.272;2024-01-30T09:14:47;51.63;;;29.25;;
41167;SDS011;26906;45.658;9.272;2024-01-30T09:17:13;51.72;;;28.50;;
41167;SDS011;26906;45.658;9.272;2024-01-30T09:19:38;41.50;;;26.73;;
41167;SDS011;26906;45.658;9.272;2024-01-30T09:22:05;42.92;;;26.65;;
41167;SDS011;26906;45.658;9.272;2024-01-30T09:24:31;46.08;;;25.77;;
41167;SDS011;26906;45.658;9.272;2024-01-30T09:26:57;44.70;;;26.27;;
41167;SDS011;26906;45.658;9.272;2024-01-30T09:29:22;48.17;;;26.23;;
41167;SDS011;26906;45.658;9.272;2024-01-30T09:31:48;47.10;;;28.58;;
41167;SDS011;26906;45.658;9.272;2024-01-30T09:34:13;47.28;;;27.83;;
41167;SDS011;26906;45.658;9.272;2024-01-30T09:36:39;46.80;;;27.60;;
41167;SDS011;26906;45.658;9.272;2024-01-30T09:39:05;45.95;;;26.95;;
41167;SDS011;26906;45.658;9.272;2024-01-30T09:41:32;45.83;;;28.10;;
41167;SDS011;26906;45.658;9.272;2024-01-30T09:44:00;42.80;;;26.17;;
41167;SDS011;26906;45.658;9.272;2024-01-30T09:46:27;46.15;;;27.90;;
41167;SDS011;26906;45.658;9.272;2024-01-30T09:48:55;45.38;;;26.20;;
41167;SDS011;26906;45.658;9.272;2024-01-30T09:51:22;47.55;;;26.45;;
41167;SDS011;26906;45.658;9.272;2024-01-30T09:53:49;55.97;;;25.48;;
41167;SDS011;26906;45.658;9.272;2024-01-30T09:56:15;42.90;;;25.05;;
41167;SDS011;26906;45.658;9.272;2024-01-30T09:58:43;42.63;;;26.60;;
41167;SDS011;26906;45.658;9.272;2024-01-30T10:01:08;49.78;;;30.88;;
41167;SDS011;26906;45.658;9.272;2024-01-30T10:03:34;45.45;;;29.42;;
41167;SDS011;26906;45.658;9.272;2024-01-30T10:06:00;52.20;;;28.63;;
41167;SDS011;26906;45.658;9.272;2024-01-30T10:08:29;40.80;;;24.55;;
41167;SDS011;26906;45.658;9.272;2024-01-30T10:10:55;46.95;;;24.58;;
41167;SDS011;26906;45.658;9.272;2024-01-30T10:13:20;45.08;;;25.55;;
41167;SDS011;26906;45.658;9.272;2024-01-30T10:15:47;46.63;;;25.70;;
41167;SDS011;26906;45.658;9.272;2024-01-30T10:18:12;44.03;;;23.95;;
41167;SDS011;26906;45.658;9.272;2024-01-30T10:20:38;36.20;;;23.30;;
41167;SDS011;26906;45.658;9.272;2024-01-30T10:23:05;46.20;;;25.35;;
41167;SDS011;26906;45.658;9.272;2024-01-30T10:25:31;39.40;;;24.15;;
41167;SDS011;26906;45.658;9.272;2024-01-30T10:27:58;59.33;;;24.77;;
41167;SDS011;26906;45.658;9.272;2024-01-30T10:30:24;41.67;;;24.02;;
41167;SDS011;26906;45.658;9.272;2024-01-30T10:32:50;36.78;;;22.58;;
41167;SDS011;26906;45.658;9.272;2024-01-30T10:35:17;60.85;;;24.10;;
41167;SDS011;26906;45.658;9.272;2024-01-30T10:37:43;37.22;;;22.45;;
41167;SDS011;26906;45.658;9.272;2024-01-30T10:40:13;35.17;;;21.08;;
41167;SDS011;26906;45.658;9.272;2024-01-30T10:42:42;54.80;;;21.88;;
41167;SDS011;26906;45.658;9.272;2024-01-30T10:45:10;37.58;;;20.13;;
41167;SDS011;26906;45.658;9.272;2024-01-30T10:47:41;47.75;;;20.25;;
41167;SDS011;26906;45.658;9.272;2024-01-30T10:50:13;34.85;;;20.67;;
41167;SDS011;26906;45.658;9.272;2024-01-30T10:52:41;34.58;;;20.63;;
41167;SDS011;26906;45.658;9.272;2024-01-30T10:55:07;41.75;;;22.77;;
41167;SDS011;26906;45.658;9.272;2024-01-30T10:57:34;36.65;;;19.95;;
41167;SDS011;26906;45.658;9.272;2024-01-30T11:00:02;53.63;;;29.23;;
41167;SDS011;26906;45.658;9.272;2024-01-30T11:02:39;53.67;;;21.73;;
41167;SDS011;26906;45.658;9.272;2024-01-30T11:05:07;52.75;;;21.48;;
41167;SDS011;26906;45.658;9.272;2024-01-30T11:07:34;34.38;;;18.90;;
41167;SDS011;26906;45.658;9.272;2024-01-30T11:12:27;36.03;;;20.15;;
41167;SDS011;26906;45.658;9.272;2024-01-30T11:15:28;48.30;;;20.92;;
41167;SDS011;26906;45.658;9.272;2024-01-30T11:20:22;41.28;;;21.58;;
41167;SDS011;26906;45.658;9.272;2024-01-30T11:22:52;42.78;;;21.65;;
41167;SDS011;26906;45.658;9.272;2024-01-30T11:25:21;37.83;;;22.73;;
41167;SDS011;26906;45.658;9.272;2024-01-30T11:27:52;40.38;;;20.38;;
41167;SDS011;26906;45.658;9.272;2024-01-30T11:30:22;38.53;;;23.20;;
41167;SDS011;26906;45.658;9.272;2024-01-30T11:35:24;40.15;;;20.95;;
41167;SDS011;26906;45.658;9.272;2024-01-30T11:37:50;36.78;;;22.65;;
41167;SDS011;26906;45.658;9.272;2024-01-30T11:40:17;44.17;;;22.38;;
41167;SDS011;26906;45.658;9.272;2024-01-30T11:42:44;38.63;;;21.48;;
41167;SDS011;26906;45.658;9.272;2024-01-30T11:45:12;44.70;;;22.98;;
41167;SDS011;26906;45.658;9.272;2024-01-30T11:47:37;36.03;;;21.67;;
41167;SDS011;26906;45.658;9.272;2024-01-30T11:50:05;40.28;;;22.77;;
41167;SDS011;26906;45.658;9.272;2024-01-30T11:52:33;40.33;;;21.90;;
41167;SDS011;26906;45.658;9.272;2024-01-30T11:54:59;37.75;;;21.83;;
41167;SDS011;26906;45.658;9.272;2024-01-30T11:57:26;39.60;;;21.13;;
41167;SDS011;26906;45.658;9.272;2024-01-30T11:59:52;44.22;;;22.27;;
41167;SDS011;26906;45.658;9.272;2024-01-30T12:02:18;39.80;;;22.40;;
41167;SDS011;26906;45.658;9.272;2024-01-30T12:04:44;34.97;;;19.55;;
41167;SDS011;26906;45.658;9.272;2024-01-30T12:07:10;34.38;;;18.45;;
41167;SDS011;26906;45.658;9.272;2024-01-30T12:09:37;31.90;;;17.50;;
41167;SDS011;26906;45.658;9.272;2024-01-30T12:12:03;28.85;;;15.85;;
41167;SDS011;26906;45.658;9.272;2024-01-30T12:14:29;32.50;;;14.73;;
41167;SDS011;26906;45.658;9.272;2024-01-30T12:16:55;26.38;;;13.82;;
41167;SDS011;26906;45.658;9.272;2024-01-30T12:19:22;27.05;;;11.20;;
41167;SDS011;26906;45.658;9.272;2024-01-30T12:21:58;22.08;;;12.88;;
41167;SDS011;26906;45.658;9.272;2024-01-30T12:24:28;22.90;;;11.90;;
41167;SDS011;26906;45.658;9.272;2024-01-30T12:26:57;25.63;;;14.23;;
41167;SDS011;26906;45.658;9.272;2024-01-30T12:29:24;24.77;;;14.20;;
41167;SDS011;26906;45.658;9.272;2024-01-30T12:31:52;30.85;;;17.30;;
41167;SDS011;26906;45.658;9.272;2024-01-30T12:34:20;26.52;;;15.73;;
41167;SDS011;26906;45.658;9.272;2024-01-30T12:36:49;34.05;;;18.95;;
41167;SDS011;26906;45.658;9.272;2024-01-30T12:39:15;41.65;;;19.73;;
41167;SDS011;26906;45.658;9.272;2024-01-30T12:41:41;32.17;;;18.25;;
41167;SDS011;26906;45.658;9.272;2024-01-30T12:44:07;46.65;;;19.67;;
41167;SDS011;26906;45.658;9.272;2024-01-30T12:46:36;34.45;;;19.08;;
41167;SDS011;26906;45.658;9.272;2024-01-30T12:49:02;41.17;;;20.95;;
41167;SDS011;26906;45.658;9.272;2024-01-30T12:51:28;40.03;;;19.70;;
41167;SDS011;26906;45.658;9.272;2024-01-30T12:53:54;43.95;;;21.88;;
41167;SDS011;26906;45.658;9.272;2024-01-30T12:56:20;31.60;;;21.33;;
41167;SDS011;26906;45.658;9.272;2024-01-30T12:58:45;39.20;;;21.10;;
41167;SDS011;26906;45.658;9.272;2024-01-30T13:01:11;35.78;;;21.42;;
41167;SDS011;26906;45.658;9.272;2024-01-30T13:03:38;38.60;;;21.23;;
41167;SDS011;26906;45.658;9.272;2024-01-30T13:06:04;34.95;;;20.20;;
41167;SDS011;26906;45.658;9.272;2024-01-30T13:08:29;39.03;;;20.40;;
41167;SDS011;26906;45.658;9.272;2024-01-30T13:10:55;36.45;;;22.13;;
41167;SDS011;26906;45.658;9.272;2024-01-30T13:13:22;30.92;;;20.58;;
41167;SDS011;26906;45.658;9.272;2024-01-30T13:15:49;31.17;;;19.67;;
41167;SDS011;26906;45.658;9.272;2024-01-30T13:18:14;33.55;;;19.77;;
41167;SDS011;26906;45.658;9.272;2024-01-30T13:20:40;33.10;;;18.40;;
41167;SDS011;26906;45.658;9.272;2024-01-30T13:23:07;36.42;;;21.05;;
41167;SDS011;26906;45.658;9.272;2024-01-30T13:25:33;37.08;;;20.90;;
41167;SDS011;26906;45.658;9.272;2024-01-30T13:27:59;31.85;;;20.67;;
41167;SDS011;26906;45.658;9.272;2024-01-30T13:30:25;31.80;;;21.10;;
41167;SDS011;26906;45.658;9.272;2024-01-30T13:32:50;37.90;;;19.48;;
41167;SDS011;26906;45.658;9.272;2024-01-30T13:35:16;28.58;;;18.30;;
41167;SDS011;26906;45.658;9.272;2024-01-30T13:37:43;29.95;;;19.35;;
41167;SDS011;26906;45.658;9.272;2024-01-30T13:40:08;30.35;;;20.15;;
41167;SDS011;26906;45.658;9.272;2024-01-30T13:42:34;32.22;;;21.63;;
41167;SDS011;26906;45.658;9.272;2024-01-30T13:45:00;34.17;;;22.10;;
41167;SDS011;26906;45.658;9.272;2024-01-30T13:47:26;36.35;;;24.33;;
41167;SDS011;26906;45.658;9.272;2024-01-30T13:49:52;43.05;;;24.05;;
41167;SDS011;26906;45.658;9.272;2024-01-30T13:52:18;37.67;;;24.17;;
41167;SDS011;26906;45.658;9.272;2024-01-30T13:54:44;32.08;;;23.20;;
41167;SDS011;26906;45.658;9.272;2024-01-30T13:57:09;34.63;;;22.38;;
41167;SDS011;26906;45.658;9.272;2024-01-30T13:59:37;33.08;;;21.35;;
41167;SDS011;26906;45.658;9.272;2024-01-30T14:02:03;41.42;;;22.08;;
41167;SDS011;26906;45.658;9.272;2024-01-30T14:04:29;35.80;;;22.08;;
41167;SDS011;26906;45.658;9.272;2024-01-30T14:06:55;34.25;;;22.85;;
41167;SDS011;26906;45.658;9.272;2024-01-30T14:09:22;38.60;;;23.00;;
41167;SDS011;26906;45.658;9.272;2024-01-30T14:11:48;32.35;;;22.42;;
41167;SDS011;26906;45.658;9.272;2024-01-30T14:14:13;31.58;;;21.33;;
41167;SDS011;26906;45.658;9.272;2024-01-30T14:16:39;29.58;;;20.58;;
41167;SDS011;26906;45.658;9.272;2024-01-30T14:19:05;34.03;;;20.70;;
41167;SDS011;26906;45.658;9.272;2024-01-30T14:21:30;31.13;;;18.40;;
41167;SDS011;26906;45.658;9.272;2024-01-30T14:23:56;31.70;;;18.50;;
41167;SDS011;26906;45.658;9.272;2024-01-30T14:26:22;30.30;;;19.60;;
41167;SDS011;26906;45.658;9.272;2024-01-30T14:28:49;32.15;;;20.45;;
41167;SDS011;26906;45.658;9.272;2024-01-30T14:31:15;32.25;;;20.10;;
41167;SDS011;26906;45.658;9.272;2024-01-30T14:33:43;29.70;;;18.08;;
41167;SDS011;26906;45.658;9.272;2024-01-30T14:36:09;27.45;;;17.52;;
41167;SDS011;26906;45.658;9.272;2024-01-30T14:38:35;33.38;;;20.63;;
41167;SDS011;26906;45.658;9.272;2024-01-30T14:41:00;28.48;;;19.05;;
41167;SDS011;26906;45.658;9.272;2024-01-30T14:43:26;30.60;;;18.52;;
41167;SDS011;26906;45.658;9.272;2024-01-30T14:45:51;32.10;;;19.00;;
41167;SDS011;26906;45.658;9.272;2024-01-30T14:48:17;31.00;;;18.08;;
41167;SDS011;26906;45.658;9.272;2024-01-30T14:50:43;41.85;;;21.05;;
41167;SDS011;26906;45.658;9.272;2024-01-30T14:53:11;32.78;;;19.73;;
41167;SDS011;26906;45.658;9.272;2024-01-30T14:55:37;32.45;;;20.75;;
41167;SDS011;26906;45.658;9.272;2024-01-30T14:58:02;36.65;;;21.13;;
41167;SDS011;26906;45.658;9.272;2024-01-30T15:00:29;37.55;;;20.48;;
41167;SDS011;26906;45.658;9.272;2024-01-30T15:02:54;37.67;;;20.90;;
41167;SDS011;26906;45.658;9.272;2024-01-30T15:05:20;42.95;;;22.00;;
41167;SDS011;26906;45.658;9.272;2024-01-30T15:07:46;38.42;;;21.83;;
41167;SDS011;26906;45.658;9.272;2024-01-30T15:10:13;47.97;;;24.25;;
41167;SDS011;26906;45.658;9.272;2024-01-30T15:12:38;58.80;;;27.08;;
41167;SDS011;26906;45.658;9.272;2024-01-30T15:15:06;42.78;;;24.77;;
41167;SDS011;26906;45.658;9.272;2024-01-30T15:17:32;49.08;;;25.40;;
41167;SDS011;26906;45.658;9.272;2024-01-30T15:19:58;50.15;;;26.45;;
41167;SDS011;26906;45.658;9.272;2024-01-30T15:22:25;57.47;;;26.95;;
41167;SDS011;26906;45.658;9.272;2024-01-30T15:24:51;45.55;;;27.65;;
41167;SDS011;26906;45.658;9.272;2024-01-30T15:27:16;45.28;;;26.23;;
41167;SDS011;26906;45.658;9.272;2024-01-30T15:29:44;47.00;;;27.35;;
41167;SDS011;26906;45.658;9.272;2024-01-30T15:32:10;48.22;;;26.98;;
41167;SDS011;26906;45.658;9.272;2024-01-30T15:34:36;57.17;;;28.50;;
41167;SDS011;26906;45.658;9.272;2024-01-30T15:37:02;61.50;;;27.83;;
41167;SDS011;26906;45.658;9.272;2024-01-30T15:39:28;43.42;;;26.25;;
41167;SDS011;26906;45.658;9.272;2024-01-30T15:41:54;52.47;;;28.27;;
41167;SDS011;26906;45.658;9.272;2024-01-30T15:44:19;58.58;;;29.52;;
41167;SDS011;26906;45.658;9.272;2024-01-30T15:46:46;58.03;;;29.30;;
41167;SDS011;26906;45.658;9.272;2024-01-30T15:49:11;52.15;;;28.10;;
41167;SDS011;26906;45.658;9.272;2024-01-30T15:51:37;51.13;;;28.13;;
41167;SDS011;26906;45.658;9.272;2024-01-30T15:54:03;45.38;;;27.80;;
41167;SDS011;26906;45.658;9.272;2024-01-30T15:56:29;51.90;;;28.38;;
41167;SDS011;26906;45.658;9.272;2024-01-30T15:58:54;53.95;;;28.38;;
41167;SDS011;26906;45.658;9.272;2024-01-30T16:01:20;53.95;;;29.13;;
41167;SDS011;26906;45.658;9.272;2024-01-30T16:03:46;49.67;;;29.50;;
41167;SDS011;26906;45.658;9.272;2024-01-30T16:06:12;52.95;;;28.92;;
41167;SDS011;26906;45.658;9.272;2024-01-30T16:08:40;59.33;;;30.63;;
41167;SDS011;26906;45.658;9.272;2024-01-30T16:11:07;60.90;;;30.52;;
41167;SDS011;26906;45.658;9.272;2024-01-30T16:13:33;54.72;;;28.70;;
41167;SDS011;26906;45.658;9.272;2024-01-30T16:16:03;51.38;;;28.63;;
41167;SDS011;26906;45.658;9.272;2024-01-30T16:18:30;57.53;;;29.30;;
41167;SDS011;26906;45.658;9.272;2024-01-30T16:20:57;57.78;;;30.38;;
41167;SDS011;26906;45.658;9.272;2024-01-30T16:23:23;58.03;;;30.42;;
41167;SDS011;26906;45.658;9.272;2024-01-30T16:25:48;51.67;;;30.08;;
41167;SDS011;26906;45.658;9.272;2024-01-30T16:28:14;60.50;;;31.08;;
41167;SDS011;26906;45.658;9.272;2024-01-30T16:30:40;50.85;;;29.55;;
41167;SDS011;26906;45.658;9.272;2024-01-30T16:33:06;53.35;;;32.35;;
41167;SDS011;26906;45.658;9.272;2024-01-30T16:35:32;60.30;;;31.70;;
41167;SDS011;26906;45.658;9.272;2024-01-30T16:37:57;65.72;;;32.30;;
41167;SDS011;26906;45.658;9.272;2024-01-30T16:40:24;65.43;;;32.22;;
41167;SDS011;26906;45.658;9.272;2024-01-30T16:42:50;63.70;;;32.28;;
41167;SDS011;26906;45.658;9.272;2024-01-30T16:45:16;61.28;;;33.25;;
41167;SDS011;26906;45.658;9.272;2024-01-30T16:47:41;55.08;;;31.08;;
41167;SDS011;26906;45.658;9.272;2024-01-30T16:50:08;58.13;;;32.35;;
41167;SDS011;26906;45.658;9.272;2024-01-30T16:52:34;56.85;;;32.67;;
41167;SDS011;26906;45.658;9.272;2024-01-30T16:54:59;50.60;;;31.60;;
41167;SDS011;26906;45.658;9.272;2024-01-30T16:57:25;53.20;;;31.45;;
41167;SDS011;26906;45.658;9.272;2024-01-30T16:59:50;55.90;;;31.83;;
41167;SDS011;26906;45.658;9.272;2024-01-30T17:02:17;55.60;;;33.10;;
41167;SDS011;26906;45.658;9.272;2024-01-30T17:04:43;64.25;;;31.98;;
41167;SDS011;26906;45.658;9.272;2024-01-30T17:07:08;59.33;;;31.80;;
41167;SDS011;26906;45.658;9.272;2024-01-30T17:09:34;62.15;;;32.33;;
41167;SDS011;26906;45.658;9.272;2024-01-30T17:12:00;61.70;;;33.22;;
41167;SDS011;26906;45.658;9.272;2024-01-30T17:14:26;60.90;;;33.42;;
41167;SDS011;26906;45.658;9.272;2024-01-30T17:16:53;57.47;;;33.08;;
41167;SDS011;26906;45.658;9.272;2024-01-30T17:19:19;52.63;;;31.77;;
41167;SDS011;26906;45.658;9.272;2024-01-30T17:21:45;54.63;;;32.92;;
41167;SDS011;26906;45.658;9.272;2024-01-30T17:24:10;60.15;;;33.95;;
41167;SDS011;26906;45.658;9.272;2024-01-30T17:26:37;60.35;;;33.35;;
41167;SDS011;26906;45.658;9.272;2024-01-30T17:29:03;61.78;;;34.50;;
41167;SDS011;26906;45.658;9.272;2024-01-30T17:31:29;61.20;;;34.50;;
41167;SDS011;26906;45.658;9.272;2024-01-30T17:33:54;70.30;;;40.85;;
41167;SDS011;26906;45.658;9.272;2024-01-30T17:36:20;68.63;;;36.25;;
41167;SDS011;26906;45.658;9.272;2024-01-30T17:38:47;62.72;;;35.65;;
41167;SDS011;26906;45.658;9.272;2024-01-30T17:41:12;70.95;;;37.72;;
41167;SDS011;26906;45.658;9.272;2024-01-30T17:43:38;67.38;;;35.05;;
41167;SDS011;26906;45.658;9.272;2024-01-30T17:46:04;70.30;;;36.85;;
41167;SDS011;26906;45.658;9.272;2024-01-30T17:48:31;66.47;;;36.10;;
41167;SDS011;26906;45.658;9.272;2024-01-30T17:50:57;69.70;;;36.65;;
41167;SDS011;26906;45.658;9.272;2024-01-30T17:53:22;66.60;;;37.20;;
41167;SDS011;26906;45.658;9.272;2024-01-30T17:55:48;70.95;;;37.25;;
41167;SDS011;26906;45.658;9.272;2024-01-30T17:58:14;70.93;;;35.88;;
41167;SDS011;26906;45.658;9.272;2024-01-30T18:00:40;67.68;;;35.88;;
41167;SDS011;26906;45.658;9.272;2024-01-30T18:03:05;64.70;;;35.75;;
41167;SDS011;26906;45.658;9.272;2024-01-30T18:05:32;72.15;;;40.15;;
41167;SDS011;26906;45.658;9.272;2024-01-30T18:07:58;73.55;;;41.03;;
41167;SDS011;26906;45.658;9.272;2024-01-30T18:10:25;71.93;;;42.00;;
41167;SDS011;26906;45.658;9.272;2024-01-30T18:12:52;70.63;;;39.03;;
41167;SDS011;26906;45.658;9.272;2024-01-30T18:15:19;75.18;;;39.10;;
41167;SDS011;26906;45.658;9.272;2024-01-30T18:17:45;63.72;;;35.70;;
41167;SDS011;26906;45.658;9.272;2024-01-30T18:20:10;70.45;;;35.90;;
41167;SDS011;26906;45.658;9.272;2024-01-30T18:22:36;69.70;;;37.05;;
41167;SDS011;26906;45.658;9.272;2024-01-30T18:25:05;70.55;;;39.58;;
41167;SDS011;26906;45.658;9.272;2024-01-30T18:27:32;67.90;;;40.03;;
41167;SDS011;26906;45.658;9.272;2024-01-30T18:29:58;75.13;;;40.03;;
41167;SDS011;26906;45.658;9.272;2024-01-30T18:32:23;65.18;;;37.47;;
41167;SDS011;26906;45.658;9.272;2024-01-30T18:34:49;66.07;;;38.33;;
41167;SDS011;26906;45.658;9.272;2024-01-30T18:37:15;68.78;;;37.58;;
41167;SDS011;26906;45.658;9.272;2024-01-30T18:39:40;62.85;;;39.08;;
41167;SDS011;26906;45.658;9.272;2024-01-30T18:42:08;63.38;;;37.70;;
41167;SDS011;26906;45.658;9.272;2024-01-30T18:44:33;70.03;;;39.50;;
41167;SDS011;26906;45.658;9.272;2024-01-30T18:46:59;70.47;;;38.20;;
41167;SDS011;26906;45.658;9.272;2024-01-30T18:49:25;61.28;;;34.75;;
41167;SDS011;26906;45.658;9.272;2024-01-30T18:51:50;60.03;;;33.00;;
41167;SDS011;26906;45.658;9.272;2024-01-30T18:54:17;59.08;;;33.50;;
41167;SDS011;26906;45.658;9.272;2024-01-30T18:56:44;61.90;;;32.25;;
41167;SDS011;26906;45.658;9.272;2024-01-30T18:59:09;57.38;;;32.20;;
41167;SDS011;26906;45.658;9.272;2024-01-30T19:01:37;55.22;;;32.63;;
41167;SDS011;26906;45.658;9.272;2024-01-30T19:04:04;59.17;;;32.40;;
41167;SDS011;26906;45.658;9.272;2024-01-30T19:06:30;59.78;;;33.55;;
41167;SDS011;26906;45.658;9.272;2024-01-30T19:08:56;61.05;;;35.35;;
41167;SDS011;26906;45.658;9.272;2024-01-30T19:11:22;62.45;;;36.00;;
41167;SDS011;26906;45.658;9.272;2024-01-30T19:13:47;61.72;;;33.70;;
41167;SDS011;26906;45.658;9.272;2024-01-30T19:16:14;63.50;;;33.65;;
41167;SDS011;26906;45.658;9.272;2024-01-30T19:18:39;56.92;;;32.20;;
41167;SDS011;26906;45.658;9.272;2024-01-30T19:21:05;56.60;;;33.47;;
41167;SDS011;26906;45.658;9.272;2024-01-30T19:23:31;65.78;;;33.88;;
41167;SDS011;26906;45.658;9.272;2024-01-30T19:25:56;63.80;;;35.13;;
41167;SDS011;26906;45.658;9.272;2024-01-30T19:28:22;67.93;;;37.63;;
41167;SDS011;26906;45.658;9.272;2024-01-30T19:30:47;85.15;;;41.67;;
41167;SDS011;26906;45.658;9.272;2024-01-30T19:33:15;69.05;;;39.63;;
41167;SDS011;26906;45.658;9.272;2024-01-30T19:35:40;69.00;;;42.00;;
41167;SDS011;26906;45.658;9.272;2024-01-30T19:38:06;68.55;;;41.85;;
41167;SDS011;26906;45.658;9.272;2024-01-30T19:40:33;67.18;;;39.50;;
41167;SDS011;26906;45.658;9.272;2024-01-30T19:42:59;71.35;;;37.15;;
41167;SDS011;26906;45.658;9.272;2024-01-30T19:45:24;64.50;;;36.58;;
41167;SDS011;26906;45.658;9.272;2024-01-30T19:47:50;66.30;;;37.08;;
41167;SDS011;26906;45.658;9.272;2024-01-30T19:50:18;62.95;;;37.95;;
41167;SDS011;26906;45.658;9.272;2024-01-30T19:52:44;68.95;;;40.05;;
41167;SDS011;26906;45.658;9.272;2024-01-30T19:55:12;63.78;;;39.15;;
41167;SDS011;26906;45.658;9.272;2024-01-30T19:57:38;60.75;;;38.60;;
41167;SDS011;26906;45.658;9.272;2024-01-30T20:00:04;76.65;;;46.70;;
41167;SDS011;26906;45.658;9.272;2024-01-30T20:02:34;76.15;;;49.85;;
41167;SDS011;26906;45.658;9.272;2024-01-30T20:05:00;76.18;;;49.40;;
41167;SDS011;26906;45.658;9.272;2024-01-30T20:07:26;81.60;;;50.45;;
41167;SDS011;26906;45.658;9.272;2024-01-30T20:09:52;83.60;;;50.25;;
41167;SDS011;26906;45.658;9.272;2024-01-30T20:12:18;78.97;;;44.63;;
41167;SDS011;26906;45.658;9.272;2024-01-30T20:14:44;65.28;;;38.58;;
41167;SDS011;26906;45.658;9.272;2024-01-30T20:17:10;62.67;;;35.55;;
41167;SDS011;26906;45.658;9.272;2024-01-30T20:19:39;69.55;;;37.85;;
41167;SDS011;26906;45.658;9.272;2024-01-30T20:22:06;64.30;;;38.35;;
41167;SDS011;26906;45.658;9.272;2024-01-30T20:24:32;61.85;;;38.55;;
41167;SDS011;26906;45.658;9.272;2024-01-30T20:26:57;68.07;;;41.60;;
41167;SDS011;26906;45.658;9.272;2024-01-30T20:29:23;71.13;;;44.03;;
41167;SDS011;26906;45.658;9.272;2024-01-30T20:31:50;73.38;;;43.17;;
41167;SDS011;26906;45.658;9.272;2024-01-30T20:34:16;74.85;;;43.45;;
41167;SDS011;26906;45.658;9.272;2024-01-30T20:36:42;71.28;;;44.55;;
41167;SDS011;26906;45.658;9.272;2024-01-30T20:39:11;77.75;;;47.50;;
41167;SDS011;26906;45.658;9.272;2024-01-30T20:41:38;75.82;;;44.35;;
41167;SDS011;26906;45.658;9.272;2024-01-30T20:44:05;73.15;;;42.63;;
41167;SDS011;26906;45.658;9.272;2024-01-30T20:46:32;67.90;;;40.55;;
41167;SDS011;26906;45.658;9.272;2024-01-30T20:48:58;72.85;;;41.38;;
41167;SDS011;26906;45.658;9.272;2024-01-30T20:51:24;74.55;;;43.15;;
41167;SDS011;26906;45.658;9.272;2024-01-30T20:53:50;67.43;;;42.15;;
41167;SDS011;26906;45.658;9.272;2024-01-30T20:56:15;73.43;;;43.60;;
41167;SDS011;26906;45.658;9.272;2024-01-30T20:58:41;92.03;;;56.78;;